sensor_id;sensor_type;location;lat;lon;timestamp;pressure;altitude;pressure_sealevel;temperature
74485;BMP280;62942;52.462;10.846;2023-05-14T00:00:21;101240;;;
74485;BMP280;62942;52.462;10.846;2023-05-14T00:01:31;101240;;;
74485;BMP280;62942;52.462;10.846;2023-05-14T00:02:41;101250;;;
74485;BMP280;62942;52.462;10.846;2023-05-14T00:03:41;101250;;;
74485;BMP280;62942;52.462;10.846;2023-05-14T00:04:51;101240;;;
74485;BMP280;62942;52.462;10.846;2023-05-14T00:05:51;101240;;;
74485;BMP280;62942;52.462;10.846;2023-05-14T00:07:01;101250;;;
74485;BMP280;62942;52.462;10.846;2023-05-14T00:08:11;101240;;;
74485;BMP280;62942;52.462;10.846;2023-05-14T00:09:21;101250;;;
74485;BMP280;62942;52.462;10.846;2023-05-14T00:10:31;101240;;;
74485;BMP280;62942;52.462;10.846;2023-05-14T00:11:31;101240;;;
74485;BMP280;62942;52.462;10.846;2023-05-14T00:12:41;101240;;;
74485;BMP280;62942;52.462;10.846;2023-05-14T00:13:51;101240;;;
74485;BMP280;62942;52.462;10.846;2023-05-14T00:14:51;101240;;;
74485;BMP280;62942;52.462;10.846;2023-05-14T00:15:51;101240;;;
74485;BMP280;62942;52.462;10.846;2023-05-14T00:17:01;101240;;;
74485;BMP280;62942;52.462;10.846;2023-05-14T00:18:01;101240;;;
74485;BMP280;62942;52.462;10.846;2023-05-14T00:19:11;101240;;;
74485;BMP280;62942;52.462;10.846;2023-05-14T00:20:11;101240;;;
74485;BMP280;62942;52.462;10.846;2023-05-14T00:21:21;101240;;;
74485;BMP280;62942;52.462;10.846;2023-05-14T00:22:21;101240;;;
74485;BMP280;62942;52.462;10.846;2023-05-14T00:23:31;101240;;;
74485;BMP280;62942;52.462;10.846;2023-05-14T00:24:41;101240;;;
74485;BMP280;62942;52.462;10.846;2023-05-14T00:25:51;101240;;;
74485;BMP280;62942;52.462;10.846;2023-05-14T00:27:01;101240;;;
74485;BMP280;62942;52.462;10.846;2023-05-14T00:28:11;101240;;;
74485;BMP280;62942;52.462;10.846;2023-05-14T00:29:21;101240;;;
74485;BMP280;62942;52.462;10.846;2023-05-14T00:30:31;101240;;;
74485;BMP280;62942;52.462;10.846;2023-05-14T00:31:41;101240;;;
74485;BMP280;62942;52.462;10.846;2023-05-14T00:32:41;101240;;;
74485;BMP280;62942;52.462;10.846;2023-05-14T00:33:51;101240;;;
74485;BMP280;62942;52.462;10.846;2023-05-14T00:35:01;101240;;;
74485;BMP280;62942;52.462;10.846;2023-05-14T00:36:11;101230;;;
74485;BMP280;62942;52.462;10.846;2023-05-14T00:37:11;101230;;;
74485;BMP280;62942;52.462;10.846;2023-05-14T00:38:21;101230;;;
74485;BMP280;62942;52.462;10.846;2023-05-14T00:39:31;101230;;;
74485;BMP280;62942;52.462;10.846;2023-05-14T00:40:31;101240;;;
74485;BMP280;62942;52.462;10.846;2023-05-14T00:41:41;101230;;;
74485;BMP280;62942;52.462;10.846;2023-05-14T00:42:41;101230;;;
74485;BMP280;62942;52.462;10.846;2023-05-14T00:43:51;101230;;;
74485;BMP280;62942;52.462;10.846;2023-05-14T00:44:51;101230;;;
74485;BMP280;62942;52.462;10.846;2023-05-14T00:46:01;101230;;;
74485;BMP280;62942;52.462;10.846;2023-05-14T00:47:11;101230;;;
74485;BMP280;62942;52.462;10.846;2023-05-14T00:48:21;101240;;;
74485;BMP280;62942;52.462;10.846;2023-05-14T00:49:21;101240;;;
74485;BMP280;62942;52.462;10.846;2023-05-14T00:50:31;101230;;;
74485;BMP280;62942;52.462;10.846;2023-05-14T00:51:31;101230;;;
74485;BMP280;62942;52.462;10.846;2023-05-14T00:52:41;101230;;;
74485;BMP280;62942;52.462;10.846;2023-05-14T00:53:41;101240;;;
74485;BMP280;62942;52.462;10.846;2023-05-14T00:54:51;101230;;;
74485;BMP280;62942;52.462;10.846;2023-05-14T00:56:01;101240;;;
74485;BMP280;62942;52.462;10.846;2023-05-14T00:57:11;101230;;;
74485;BMP280;62942;52.462;10.846;2023-05-14T00:58:21;101240;;;
74485;BMP280;62942;52.462;10.846;2023-05-14T00:59:31;101230;;;
74485;BMP280;62942;52.462;10.846;2023-05-14T01:00:41;101230;;;
74485;BMP280;62942;52.462;10.846;2023-05-14T01:01:51;101230;;;
74485;BMP280;62942;52.462;10.846;2023-05-14T01:02:51;101230;;;
74485;BMP280;62942;52.462;10.846;2023-05-14T01:03:51;101230;;;
74485;BMP280;62942;52.462;10.846;2023-05-14T01:05:01;101240;;;
74485;BMP280;62942;52.462;10.846;2023-05-14T01:06:03;101230;;;
74485;BMP280;62942;52.462;10.846;2023-05-14T01:07:11;101220;;;
74485;BMP280;62942;52.462;10.846;2023-05-14T01:08:12;101230;;;
74485;BMP280;62942;52.462;10.846;2023-05-14T01:09:21;101220;;;
74485;BMP280;62942;52.462;10.846;2023-05-14T01:10:23;101230;;;
74485;BMP280;62942;52.462;10.846;2023-05-14T01:11:31;101230;;;
74485;BMP280;62942;52.462;10.846;2023-05-14T01:12:32;101230;;;
74485;BMP280;62942;52.462;10.846;2023-05-14T01:13:43;101230;;;
74485;BMP280;62942;52.462;10.846;2023-05-14T01:14:42;101230;;;
74485;BMP280;62942;52.462;10.846;2023-05-14T01:15:51;101230;;;
74485;BMP280;62942;52.462;10.846;2023-05-14T01:17:01;101230;;;
74485;BMP280;62942;52.462;10.846;2023-05-14T01:18:12;101230;;;
74485;BMP280;62942;52.462;10.846;2023-05-14T01:19:26;101230;;;
74485;BMP280;62942;52.462;10.846;2023-05-14T01:20:31;101230;;;
74485;BMP280;62942;52.462;10.846;2023-05-14T01:21:42;101230;;;
74485;BMP280;62942;52.462;10.846;2023-05-14T01:22:41;101230;;;
74485;BMP280;62942;52.462;10.846;2023-05-14T01:23:50;101240;;;
74485;BMP280;62942;52.462;10.846;2023-05-14T01:24:50;101230;;;
74485;BMP280;62942;52.462;10.846;2023-05-14T01:26:00;101230;;;
74485;BMP280;62942;52.462;10.846;2023-05-14T01:27:02;101230;;;
74485;BMP280;62942;52.462;10.846;2023-05-14T01:28:12;101230;;;
74485;BMP280;62942;52.462;10.846;2023-05-14T01:29:21;101230;;;
74485;BMP280;62942;52.462;10.846;2023-05-14T01:30:31;101230;;;
74485;BMP280;62942;52.462;10.846;2023-05-14T01:31:30;101230;;;
74485;BMP280;62942;52.462;10.846;2023-05-14T01:32:40;101230;;;
74485;BMP280;62942;52.462;10.846;2023-05-14T01:33:50;101230;;;
74485;BMP280;62942;52.462;10.846;2023-05-14T01:34:51;101230;;;
74485;BMP280;62942;52.462;10.846;2023-05-14T01:35:50;101230;;;
74485;BMP280;62942;52.462;10.846;2023-05-14T01:37:01;101230;;;
74485;BMP280;62942;52.462;10.846;2023-05-14T01:38:11;101240;;;
74485;BMP280;62942;52.462;10.846;2023-05-14T01:39:10;101230;;;
74485;BMP280;62942;52.462;10.846;2023-05-14T01:40:21;101230;;;
74485;BMP280;62942;52.462;10.846;2023-05-14T01:41:30;101230;;;
74485;BMP280;62942;52.462;10.846;2023-05-14T01:42:40;101230;;;
74485;BMP280;62942;52.462;10.846;2023-05-14T01:43:40;101230;;;
74485;BMP280;62942;52.462;10.846;2023-05-14T01:44:50;101230;;;
74485;BMP280;62942;52.462;10.846;2023-05-14T01:45:50;101230;;;
74485;BMP280;62942;52.462;10.846;2023-05-14T01:47:00;101230;;;
74485;BMP280;62942;52.462;10.846;2023-05-14T01:48:11;101230;;;
74485;BMP280;62942;52.462;10.846;2023-05-14T01:49:10;101230;;;
74485;BMP280;62942;52.462;10.846;2023-05-14T01:50:11;101240;;;
74485;BMP280;62942;52.462;10.846;2023-05-14T01:51:20;101240;;;
74485;BMP280;62942;52.462;10.846;2023-05-14T01:52:30;101230;;;
74485;BMP280;62942;52.462;10.846;2023-05-14T01:53:40;101230;;;
74485;BMP280;62942;52.462;10.846;2023-05-14T01:54:50;101240;;;
74485;BMP280;62942;52.462;10.846;2023-05-14T01:56:00;101230;;;
74485;BMP280;62942;52.462;10.846;2023-05-14T01:57:00;101230;;;
74485;BMP280;62942;52.462;10.846;2023-05-14T01:58:00;101230;;;
74485;BMP280;62942;52.462;10.846;2023-05-14T01:59:10;101230;;;
74485;BMP280;62942;52.462;10.846;2023-05-14T02:00:22;101230;;;
74485;BMP280;62942;52.462;10.846;2023-05-14T02:01:30;101230;;;
74485;BMP280;62942;52.462;10.846;2023-05-14T02:02:40;101240;;;
74485;BMP280;62942;52.462;10.846;2023-05-14T02:03:50;101230;;;
74485;BMP280;62942;52.462;10.846;2023-05-14T02:05:00;101230;;;
74485;BMP280;62942;52.462;10.846;2023-05-14T02:06:10;101230;;;
74485;BMP280;62942;52.462;10.846;2023-05-14T02:07:20;101230;;;
74485;BMP280;62942;52.462;10.846;2023-05-14T02:08:30;101230;;;
74485;BMP280;62942;52.462;10.846;2023-05-14T02:09:30;101230;;;
74485;BMP280;62942;52.462;10.846;2023-05-14T02:10:40;101220;;;
74485;BMP280;62942;52.462;10.846;2023-05-14T02:11:50;101220;;;
74485;BMP280;62942;52.462;10.846;2023-05-14T02:13:01;101220;;;
74485;BMP280;62942;52.462;10.846;2023-05-14T02:14:10;101220;;;
74485;BMP280;62942;52.462;10.846;2023-05-14T02:15:20;101220;;;
74485;BMP280;62942;52.462;10.846;2023-05-14T02:16:30;101220;;;
74485;BMP280;62942;52.462;10.846;2023-05-14T02:17:30;101220;;;
74485;BMP280;62942;52.462;10.846;2023-05-14T02:18:40;101210;;;
74485;BMP280;62942;52.462;10.846;2023-05-14T02:19:50;101220;;;
74485;BMP280;62942;52.462;10.846;2023-05-14T02:21:00;101220;;;
74485;BMP280;62942;52.462;10.846;2023-05-14T02:22:11;101220;;;
74485;BMP280;62942;52.462;10.846;2023-05-14T02:23:20;101220;;;
74485;BMP280;62942;52.462;10.846;2023-05-14T02:24:30;101220;;;
74485;BMP280;62942;52.462;10.846;2023-05-14T02:25:40;101230;;;
74485;BMP280;62942;52.462;10.846;2023-05-14T02:26:40;101220;;;
74485;BMP280;62942;52.462;10.846;2023-05-14T02:27:50;101210;;;
74485;BMP280;62942;52.462;10.846;2023-05-14T02:29:00;101220;;;
74485;BMP280;62942;52.462;10.846;2023-05-14T02:30:00;101220;;;
74485;BMP280;62942;52.462;10.846;2023-05-14T02:31:10;101210;;;
74485;BMP280;62942;52.462;10.846;2023-05-14T02:32:20;101210;;;
74485;BMP280;62942;52.462;10.846;2023-05-14T02:33:30;101220;;;
74485;BMP280;62942;52.462;10.846;2023-05-14T02:34:30;101220;;;
74485;BMP280;62942;52.462;10.846;2023-05-14T02:35:40;101210;;;
74485;BMP280;62942;52.462;10.846;2023-05-14T02:36:40;101220;;;
74485;BMP280;62942;52.462;10.846;2023-05-14T02:37:50;101210;;;
74485;BMP280;62942;52.462;10.846;2023-05-14T02:39:00;101200;;;
74485;BMP280;62942;52.462;10.846;2023-05-14T02:40:00;101200;;;
74485;BMP280;62942;52.462;10.846;2023-05-14T02:41:10;101200;;;
74485;BMP280;62942;52.462;10.846;2023-05-14T02:42:20;101200;;;
74485;BMP280;62942;52.462;10.846;2023-05-14T02:43:20;101220;;;
74485;BMP280;62942;52.462;10.846;2023-05-14T02:44:30;101220;;;
74485;BMP280;62942;52.462;10.846;2023-05-14T02:45:30;101220;;;
74485;BMP280;62942;52.462;10.846;2023-05-14T02:46:41;101220;;;
74485;BMP280;62942;52.462;10.846;2023-05-14T02:47:50;101220;;;
74485;BMP280;62942;52.462;10.846;2023-05-14T02:49:00;101210;;;
74485;BMP280;62942;52.462;10.846;2023-05-14T02:50:00;101210;;;
74485;BMP280;62942;52.462;10.846;2023-05-14T02:51:10;101220;;;
74485;BMP280;62942;52.462;10.846;2023-05-14T02:52:20;101210;;;
74485;BMP280;62942;52.462;10.846;2023-05-14T02:53:20;101220;;;
74485;BMP280;62942;52.462;10.846;2023-05-14T02:54:30;101220;;;
74485;BMP280;62942;52.462;10.846;2023-05-14T02:55:40;101210;;;
74485;BMP280;62942;52.462;10.846;2023-05-14T02:56:50;101210;;;
74485;BMP280;62942;52.462;10.846;2023-05-14T02:58:00;101210;;;
74485;BMP280;62942;52.462;10.846;2023-05-14T02:59:10;101210;;;
74485;BMP280;62942;52.462;10.846;2023-05-14T03:00:20;101210;;;
74485;BMP280;62942;52.462;10.846;2023-05-14T03:01:20;101210;;;
74485;BMP280;62942;52.462;10.846;2023-05-14T03:02:30;101210;;;
74485;BMP280;62942;52.462;10.846;2023-05-14T03:03:40;101220;;;
74485;BMP280;62942;52.462;10.846;2023-05-14T03:04:50;101210;;;
74485;BMP280;62942;52.462;10.846;2023-05-14T03:06:00;101210;;;
74485;BMP280;62942;52.462;10.846;2023-05-14T03:07:11;101210;;;
74485;BMP280;62942;52.462;10.846;2023-05-14T03:08:20;101210;;;
74485;BMP280;62942;52.462;10.846;2023-05-14T03:09:20;101220;;;
74485;BMP280;62942;52.462;10.846;2023-05-14T03:10:30;101210;;;
74485;BMP280;62942;52.462;10.846;2023-05-14T03:11:40;101210;;;
74485;BMP280;62942;52.462;10.846;2023-05-14T03:12:40;101210;;;
74485;BMP280;62942;52.462;10.846;2023-05-14T03:13:50;101210;;;
74485;BMP280;62942;52.462;10.846;2023-05-14T03:15:00;101200;;;
74485;BMP280;62942;52.462;10.846;2023-05-14T03:16:10;101210;;;
74485;BMP280;62942;52.462;10.846;2023-05-14T03:17:10;101200;;;
74485;BMP280;62942;52.462;10.846;2023-05-14T03:18:20;101210;;;
74485;BMP280;62942;52.462;10.846;2023-05-14T03:19:30;101210;;;
74485;BMP280;62942;52.462;10.846;2023-05-14T03:20:40;101210;;;
74485;BMP280;62942;52.462;10.846;2023-05-14T03:21:50;101200;;;
74485;BMP280;62942;52.462;10.846;2023-05-14T03:22:50;101200;;;
74485;BMP280;62942;52.462;10.846;2023-05-14T03:24:00;101210;;;
74485;BMP280;62942;52.462;10.846;2023-05-14T03:25:00;101210;;;
74485;BMP280;62942;52.462;10.846;2023-05-14T03:26:10;101210;;;
74485;BMP280;62942;52.462;10.846;2023-05-14T03:27:20;101200;;;
74485;BMP280;62942;52.462;10.846;2023-05-14T03:28:20;101210;;;
74485;BMP280;62942;52.462;10.846;2023-05-14T03:29:30;101210;;;
74485;BMP280;62942;52.462;10.846;2023-05-14T03:30:40;101200;;;
74485;BMP280;62942;52.462;10.846;2023-05-14T03:31:40;101200;;;
74485;BMP280;62942;52.462;10.846;2023-05-14T03:32:50;101200;;;
74485;BMP280;62942;52.462;10.846;2023-05-14T03:34:00;101200;;;
74485;BMP280;62942;52.462;10.846;2023-05-14T03:35:10;101200;;;
74485;BMP280;62942;52.462;10.846;2023-05-14T03:36:11;101200;;;
74485;BMP280;62942;52.462;10.846;2023-05-14T03:37:20;101200;;;
74485;BMP280;62942;52.462;10.846;2023-05-14T03:38:20;101200;;;
74485;BMP280;62942;52.462;10.846;2023-05-14T03:39:30;101200;;;
74485;BMP280;62942;52.462;10.846;2023-05-14T03:40:40;101200;;;
74485;BMP280;62942;52.462;10.846;2023-05-14T03:41:40;101200;;;
74485;BMP280;62942;52.462;10.846;2023-05-14T03:42:50;101200;;;
74485;BMP280;62942;52.462;10.846;2023-05-14T03:43:50;101200;;;
74485;BMP280;62942;52.462;10.846;2023-05-14T03:45:00;101200;;;
74485;BMP280;62942;52.462;10.846;2023-05-14T03:46:00;101200;;;
74485;BMP280;62942;52.462;10.846;2023-05-14T03:47:10;101200;;;
74485;BMP280;62942;52.462;10.846;2023-05-14T03:48:20;101190;;;
74485;BMP280;62942;52.462;10.846;2023-05-14T03:49:30;101190;;;
74485;BMP280;62942;52.462;10.846;2023-05-14T03:50:40;101190;;;
74485;BMP280;62942;52.462;10.846;2023-05-14T03:51:50;101180;;;
74485;BMP280;62942;52.462;10.846;2023-05-14T03:52:50;101180;;;
74485;BMP280;62942;52.462;10.846;2023-05-14T03:54:01;101180;;;
74485;BMP280;62942;52.462;10.846;2023-05-14T03:55:00;101180;;;
74485;BMP280;62942;52.462;10.846;2023-05-14T03:56:10;101180;;;
74485;BMP280;62942;52.462;10.846;2023-05-14T03:57:20;101180;;;
74485;BMP280;62942;52.462;10.846;2023-05-14T03:58:30;101180;;;
74485;BMP280;62942;52.462;10.846;2023-05-14T03:59:30;101180;;;
74485;BMP280;62942;52.462;10.846;2023-05-14T04:00:30;101190;;;
74485;BMP280;62942;52.462;10.846;2023-05-14T04:01:40;101190;;;
74485;BMP280;62942;52.462;10.846;2023-05-14T04:02:40;101190;;;
74485;BMP280;62942;52.462;10.846;2023-05-14T04:03:50;101190;;;
74485;BMP280;62942;52.462;10.846;2023-05-14T04:05:00;101190;;;
74485;BMP280;62942;52.462;10.846;2023-05-14T04:06:10;101190;;;
74485;BMP280;62942;52.462;10.846;2023-05-14T04:07:10;101190;;;
74485;BMP280;62942;52.462;10.846;2023-05-14T04:08:20;101190;;;
74485;BMP280;62942;52.462;10.846;2023-05-14T04:09:30;101190;;;
74485;BMP280;62942;52.462;10.846;2023-05-14T04:10:41;101190;;;
74485;BMP280;62942;52.462;10.846;2023-05-14T04:11:50;101190;;;
74485;BMP280;62942;52.462;10.846;2023-05-14T04:13:00;101190;;;
74485;BMP280;62942;52.462;10.846;2023-05-14T04:14:10;101190;;;
74485;BMP280;62942;52.462;10.846;2023-05-14T04:15:20;101190;;;
74485;BMP280;62942;52.462;10.846;2023-05-14T04:16:20;101190;;;
74485;BMP280;62942;52.462;10.846;2023-05-14T04:17:20;101190;;;
74485;BMP280;62942;52.462;10.846;2023-05-14T04:18:30;101190;;;
74485;BMP280;62942;52.462;10.846;2023-05-14T04:19:40;101190;;;
74485;BMP280;62942;52.462;10.846;2023-05-14T04:20:40;101190;;;
74485;BMP280;62942;52.462;10.846;2023-05-14T04:21:50;101170;;;
74485;BMP280;62942;52.462;10.846;2023-05-14T04:23:00;101180;;;
74485;BMP280;62942;52.462;10.846;2023-05-14T04:24:00;101170;;;
74485;BMP280;62942;52.462;10.846;2023-05-14T04:25:00;101170;;;
74485;BMP280;62942;52.462;10.846;2023-05-14T04:26:10;101170;;;
74485;BMP280;62942;52.462;10.846;2023-05-14T04:27:20;101170;;;
74485;BMP280;62942;52.462;10.846;2023-05-14T04:28:30;101180;;;
74485;BMP280;62942;52.462;10.846;2023-05-14T04:29:40;101190;;;
74485;BMP280;62942;52.462;10.846;2023-05-14T04:30:40;101180;;;
74485;BMP280;62942;52.462;10.846;2023-05-14T04:31:50;101180;;;
74485;BMP280;62942;52.462;10.846;2023-05-14T04:33:00;101180;;;
74485;BMP280;62942;52.462;10.846;2023-05-14T04:34:00;101180;;;
74485;BMP280;62942;52.462;10.846;2023-05-14T04:35:10;101180;;;
74485;BMP280;62942;52.462;10.846;2023-05-14T04:36:20;101170;;;
74485;BMP280;62942;52.462;10.846;2023-05-14T04:37:30;101170;;;
74485;BMP280;62942;52.462;10.846;2023-05-14T04:38:40;101170;;;
74485;BMP280;62942;52.462;10.846;2023-05-14T04:39:40;101170;;;
74485;BMP280;62942;52.462;10.846;2023-05-14T04:40:50;101170;;;
74485;BMP280;62942;52.462;10.846;2023-05-14T04:41:50;101170;;;
74485;BMP280;62942;52.462;10.846;2023-05-14T04:43:00;101170;;;
74485;BMP280;62942;52.462;10.846;2023-05-14T04:44:01;101180;;;
74485;BMP280;62942;52.462;10.846;2023-05-14T04:45:10;101180;;;
74485;BMP280;62942;52.462;10.846;2023-05-14T04:46:20;101180;;;
74485;BMP280;62942;52.462;10.846;2023-05-14T04:47:30;101180;;;
74485;BMP280;62942;52.462;10.846;2023-05-14T04:48:40;101180;;;
74485;BMP280;62942;52.462;10.846;2023-05-14T04:49:40;101180;;;
74485;BMP280;62942;52.462;10.846;2023-05-14T04:50:50;101180;;;
74485;BMP280;62942;52.462;10.846;2023-05-14T04:52:00;101180;;;
74485;BMP280;62942;52.462;10.846;2023-05-14T04:53:00;101180;;;
74485;BMP280;62942;52.462;10.846;2023-05-14T04:54:00;101180;;;
74485;BMP280;62942;52.462;10.846;2023-05-14T04:55:10;101160;;;
74485;BMP280;62942;52.462;10.846;2023-05-14T04:56:10;101170;;;
74485;BMP280;62942;52.462;10.846;2023-05-14T04:57:20;101170;;;
74485;BMP280;62942;52.462;10.846;2023-05-14T04:58:30;101160;;;
74485;BMP280;62942;52.462;10.846;2023-05-14T04:59:30;101170;;;
74485;BMP280;62942;52.462;10.846;2023-05-14T05:00:40;101170;;;
74485;BMP280;62942;52.462;10.846;2023-05-14T05:01:40;101170;;;
74485;BMP280;62942;52.462;10.846;2023-05-14T05:02:50;101170;;;
74485;BMP280;62942;52.462;10.846;2023-05-14T05:03:50;101180;;;
74485;BMP280;62942;52.462;10.846;2023-05-14T05:04:50;101180;;;
74485;BMP280;62942;52.462;10.846;2023-05-14T05:06:00;101180;;;
74485;BMP280;62942;52.462;10.846;2023-05-14T05:07:00;101170;;;
74485;BMP280;62942;52.462;10.846;2023-05-14T05:08:10;101180;;;
74485;BMP280;62942;52.462;10.846;2023-05-14T05:09:10;101180;;;
74485;BMP280;62942;52.462;10.846;2023-05-14T05:10:10;101180;;;
74485;BMP280;62942;52.462;10.846;2023-05-14T05:11:20;101180;;;
74485;BMP280;62942;52.462;10.846;2023-05-14T05:12:30;101170;;;
74485;BMP280;62942;52.462;10.846;2023-05-14T05:13:30;101180;;;
74485;BMP280;62942;52.462;10.846;2023-05-14T05:14:40;101180;;;
74485;BMP280;62942;52.462;10.846;2023-05-14T05:15:40;101180;;;
74485;BMP280;62942;52.462;10.846;2023-05-14T05:16:40;101170;;;
74485;BMP280;62942;52.462;10.846;2023-05-14T05:17:50;101180;;;
74485;BMP280;62942;52.462;10.846;2023-05-14T05:19:00;101170;;;
74485;BMP280;62942;52.462;10.846;2023-05-14T05:20:00;101180;;;
74485;BMP280;62942;52.462;10.846;2023-05-14T05:21:10;101180;;;
74485;BMP280;62942;52.462;10.846;2023-05-14T05:22:10;101180;;;
74485;BMP280;62942;52.462;10.846;2023-05-14T05:23:10;101180;;;
74485;BMP280;62942;52.462;10.846;2023-05-14T05:24:20;101180;;;
74485;BMP280;62942;52.462;10.846;2023-05-14T05:25:30;101170;;;
74485;BMP280;62942;52.462;10.846;2023-05-14T05:26:40;101170;;;
74485;BMP280;62942;52.462;10.846;2023-05-14T05:27:50;101170;;;
74485;BMP280;62942;52.462;10.846;2023-05-14T05:29:00;101170;;;
74485;BMP280;62942;52.462;10.846;2023-05-14T05:30:10;101170;;;
74485;BMP280;62942;52.462;10.846;2023-05-14T05:31:10;101170;;;
74485;BMP280;62942;52.462;10.846;2023-05-14T05:32:20;101170;;;
74485;BMP280;62942;52.462;10.846;2023-05-14T05:33:30;101170;;;
74485;BMP280;62942;52.462;10.846;2023-05-14T05:34:40;101170;;;
74485;BMP280;62942;52.462;10.846;2023-05-14T05:35:40;101170;;;
74485;BMP280;62942;52.462;10.846;2023-05-14T05:36:50;101170;;;
74485;BMP280;62942;52.462;10.846;2023-05-14T05:37:50;101180;;;
74485;BMP280;62942;52.462;10.846;2023-05-14T05:39:00;101170;;;
74485;BMP280;62942;52.462;10.846;2023-05-14T05:40:00;101160;;;
74485;BMP280;62942;52.462;10.846;2023-05-14T05:41:10;101170;;;
74485;BMP280;62942;52.462;10.846;2023-05-14T05:42:10;101170;;;
74485;BMP280;62942;52.462;10.846;2023-05-14T05:43:20;101170;;;
74485;BMP280;62942;52.462;10.846;2023-05-14T05:44:30;101170;;;
74485;BMP280;62942;52.462;10.846;2023-05-14T05:45:40;101170;;;
74485;BMP280;62942;52.462;10.846;2023-05-14T05:46:50;101170;;;
74485;BMP280;62942;52.462;10.846;2023-05-14T05:47:50;101170;;;
74485;BMP280;62942;52.462;10.846;2023-05-14T05:49:00;101170;;;
74485;BMP280;62942;52.462;10.846;2023-05-14T05:50:00;101170;;;
74485;BMP280;62942;52.462;10.846;2023-05-14T05:51:00;101170;;;
74485;BMP280;62942;52.462;10.846;2023-05-14T05:52:00;101170;;;
74485;BMP280;62942;52.462;10.846;2023-05-14T05:53:10;101170;;;
74485;BMP280;62942;52.462;10.846;2023-05-14T05:54:10;101170;;;
74485;BMP280;62942;52.462;10.846;2023-05-14T05:55:10;101160;;;
74485;BMP280;62942;52.462;10.846;2023-05-14T05:56:10;101170;;;
74485;BMP280;62942;52.462;10.846;2023-05-14T05:57:20;101170;;;
74485;BMP280;62942;52.462;10.846;2023-05-14T05:58:20;101170;;;
74485;BMP280;62942;52.462;10.846;2023-05-14T05:59:30;101170;;;
74485;BMP280;62942;52.462;10.846;2023-05-14T06:00:30;101170;;;
74485;BMP280;62942;52.462;10.846;2023-05-14T06:01:40;101170;;;
74485;BMP280;62942;52.462;10.846;2023-05-14T06:02:50;101160;;;
74485;BMP280;62942;52.462;10.846;2023-05-14T06:03:51;101160;;;
74485;BMP280;62942;52.462;10.846;2023-05-14T06:05:00;101160;;;
74485;BMP280;62942;52.462;10.846;2023-05-14T06:06:10;101160;;;
74485;BMP280;62942;52.462;10.846;2023-05-14T06:07:20;101160;;;
74485;BMP280;62942;52.462;10.846;2023-05-14T06:08:20;101170;;;
74485;BMP280;62942;52.462;10.846;2023-05-14T06:09:30;101160;;;
74485;BMP280;62942;52.462;10.846;2023-05-14T06:10:40;101160;;;
74485;BMP280;62942;52.462;10.846;2023-05-14T06:11:50;101170;;;
74485;BMP280;62942;52.462;10.846;2023-05-14T06:13:00;101170;;;
74485;BMP280;62942;52.462;10.846;2023-05-14T06:14:10;101170;;;
74485;BMP280;62942;52.462;10.846;2023-05-14T06:15:20;101160;;;
74485;BMP280;62942;52.462;10.846;2023-05-14T06:16:30;101170;;;
74485;BMP280;62942;52.462;10.846;2023-05-14T06:17:40;101160;;;
74485;BMP280;62942;52.462;10.846;2023-05-14T06:18:50;101170;;;
74485;BMP280;62942;52.462;10.846;2023-05-14T06:20:00;101160;;;
74485;BMP280;62942;52.462;10.846;2023-05-14T06:21:10;101170;;;
74485;BMP280;62942;52.462;10.846;2023-05-14T06:22:20;101170;;;
74485;BMP280;62942;52.462;10.846;2023-05-14T06:23:30;101170;;;
74485;BMP280;62942;52.462;10.846;2023-05-14T06:24:40;101160;;;
74485;BMP280;62942;52.462;10.846;2023-05-14T06:25:50;101150;;;
74485;BMP280;62942;52.462;10.846;2023-05-14T06:28:10;101150;;;
74485;BMP280;62942;52.462;10.846;2023-05-14T06:31:30;101170;;;
74485;BMP280;62942;52.462;10.846;2023-05-14T06:32:30;101160;;;
74485;BMP280;62942;52.462;10.846;2023-05-14T06:33:40;101160;;;
74485;BMP280;62942;52.462;10.846;2023-05-14T06:34:40;101170;;;
74485;BMP280;62942;52.462;10.846;2023-05-14T06:35:50;101170;;;
74485;BMP280;62942;52.462;10.846;2023-05-14T06:37:00;101160;;;
74485;BMP280;62942;52.462;10.846;2023-05-14T06:38:10;101160;;;
74485;BMP280;62942;52.462;10.846;2023-05-14T06:39:26;101150;;;
74485;BMP280;62942;52.462;10.846;2023-05-14T06:40:20;101160;;;
74485;BMP280;62942;52.462;10.846;2023-05-14T06:41:30;101160;;;
74485;BMP280;62942;52.462;10.846;2023-05-14T06:42:30;101160;;;
74485;BMP280;62942;52.462;10.846;2023-05-14T06:43:30;101150;;;
74485;BMP280;62942;52.462;10.846;2023-05-14T06:44:30;101160;;;
74485;BMP280;62942;52.462;10.846;2023-05-14T06:45:40;101160;;;
74485;BMP280;62942;52.462;10.846;2023-05-14T06:46:40;101150;;;
74485;BMP280;62942;52.462;10.846;2023-05-14T06:47:40;101140;;;
74485;BMP280;62942;52.462;10.846;2023-05-14T06:48:50;101140;;;
74485;BMP280;62942;52.462;10.846;2023-05-14T06:49:50;101140;;;
74485;BMP280;62942;52.462;10.846;2023-05-14T06:51:00;101150;;;
74485;BMP280;62942;52.462;10.846;2023-05-14T06:52:00;101150;;;
74485;BMP280;62942;52.462;10.846;2023-05-14T06:53:00;101150;;;
74485;BMP280;62942;52.462;10.846;2023-05-14T06:54:10;101160;;;
74485;BMP280;62942;52.462;10.846;2023-05-14T06:55:20;101150;;;
74485;BMP280;62942;52.462;10.846;2023-05-14T06:56:20;101160;;;
74485;BMP280;62942;52.462;10.846;2023-05-14T06:57:30;101150;;;
74485;BMP280;62942;52.462;10.846;2023-05-14T06:58:40;101160;;;
74485;BMP280;62942;52.462;10.846;2023-05-14T06:59:50;101150;;;
74485;BMP280;62942;52.462;10.846;2023-05-14T07:01:00;101150;;;
74485;BMP280;62942;52.462;10.846;2023-05-14T07:02:00;101150;;;
74485;BMP280;62942;52.462;10.846;2023-05-14T07:03:10;101140;;;
74485;BMP280;62942;52.462;10.846;2023-05-14T07:04:20;101140;;;